Home > Products > Valid Products > TAF

000
FTUS44 KJAN 302300
TAFGWO
TAF
KGWO 302331Z 3100/3124 04003KT P6SM BKN250
     FM311400 13007KT P6SM BKN150=



000
FTUS44 KJAN 302300
TAFGLH
TAF
KGLH 302331Z 3100/3124 04005KT P6SM BKN250
     FM311400 12008KT P6SM BKN150=



000
FTUS44 KJAN 302300
TAFHBG
TAF
KHBG 302331Z 3100/3124 03003KT P6SM BKN250
     FM311400 13005KT P6SM BKN180=



000
FTUS44 KJAN 302300
TAFJAN
TAF
KJAN 302331Z 3100/3124 04003KT P6SM BKN250
     FM311400 13007KT P6SM BKN150=



000
FTUS44 KJAN 302300
TAFMEI
TAF
KMEI 302331Z 3100/3124 03003KT P6SM BKN250
     FM311400 11006KT P6SM BKN150=



000
FTUS44 KJAN 301700
TAFJAN
TAF
KJAN 301720Z 3018/3118 01007KT P6SM BKN250=



000
FTUS44 KJAN 301700
TAFGLH
TAF
KGLH 301720Z 3018/3118 03007KT P6SM BKN250=



000
FTUS44 KJAN 301700
TAFHBG
TAF
KHBG 301720Z 3018/3118 02007KT P6SM BKN250=



000
FTUS44 KJAN 301700
TAFGWO
TAF
KGWO 301720Z 3018/3118 02007KT P6SM BKN250=



000
FTUS44 KJAN 301700
TAFMEI
TAF
KMEI 301720Z 3018/3118 01007KT P6SM BKN250=



000
FTUS44 KJAN 301100
TAFGWO
TAF
KGWO 301120Z 3012/3112 35005KT P6SM SCT250
     FM301500 02010KT P6SM SCT250=



000
FTUS44 KJAN 301100
TAFJAN
TAF
KJAN 301120Z 3012/3112 01012KT P6SM SCT250=



000
FTUS44 KJAN 301100
TAFMEI
TAF
KMEI 301120Z 3012/3112 01012KT P6SM SCT250=



000
FTUS44 KJAN 301100
TAFHBG
TAF
KHBG 301120Z 3012/3112 35008KT P6SM BKN250
     FM301500 02012KT P6SM SCT250=



000
FTUS44 KJAN 301100
TAFGLH
TAF
KGLH 301120Z 3012/3112 01007KT P6SM SCT250
     FM301500 03012KT P6SM SCT250=



000
FTUS44 KJAN 300900 AAA
TAFMEI
TAF AMD
KMEI 300907Z 3009/3106 35008KT P6SM SCT030 SCT250
     FM301400 01011KT P6SM SCT250=



000
FTUS44 KJAN 300900 AAA
TAFJAN
TAF AMD
KJAN 300906Z 3009/3106 36010KT P6SM SCT250=



000
FTUS44 KJAN 300900 AAB
TAFGWO
TAF AMD
KGWO 300904Z 3009/3106 36008KT P6SM SCT250=



000
FTUS44 KJAN 300900 AAA
TAFGWO
TAF AMD
KGWO 300903Z 3009/3106 36008KT P6SM SCT250=



000
FTUS44 KJAN 300500
TAFHBG
TAF
KHBG 300532Z 3006/3106 35010G18KT P6SM SCT120 BKN250
     FM301500 01008KT P6SM BKN250=



000
FTUS44 KJAN 300500
TAFGWO
TAF
KGWO 300532Z 3006/3106 36011G21KT P6SM OVC030
     FM301000 02008KT P6SM BKN250=



000
FTUS44 KJAN 300500
TAFMEI
TAF
KMEI 300532Z 3006/3106 35013G21KT P6SM BKN035 BKN250
     FM301400 01009KT P6SM BKN250=



000
FTUS44 KJAN 300500
TAFJAN
TAF
KJAN 300532Z 3006/3106 36014G21KT P6SM BKN040
     FM301000 01009KT P6SM BKN250=



000
FTUS44 KJAN 300500
TAFGLH
TAF
KGLH 300532Z 3006/3106 01015G21KT P6SM OVC030
     FM300800 02010KT P6SM BKN250=



000
FTUS44 KJAN 292300
TAFGWO
TAF
KGWO 292329Z 3000/3024 36011G17KT P6SM SCT040 BKN250
     FM300600 01007KT P6SM BKN250=



000
FTUS44 KJAN 292300
TAFJAN
TAF
KJAN 292329Z 3000/3024 33010G18KT P6SM SCT110 BKN250
     FM300700 01010KT P6SM BKN250=



000
FTUS44 KJAN 292300
TAFMEI
TAF
KMEI 292329Z 3000/3024 24008KT P6SM SCT110 BKN250
     FM300200 33010G17KT P6SM SCT110 BKN250
     FM300800 36010KT P6SM BKN250=



000
FTUS44 KJAN 292300
TAFHBG
TAF
KHBG 292329Z 3000/3024 24007KT P6SM SCT110 BKN250
     FM300300 34009KT P6SM BKN250=



000
FTUS44 KJAN 292300
TAFGLH
TAF
KGLH 292329Z 3000/3024 36014G21KT P6SM SCT040 BKN250
     FM300600 01010KT P6SM BKN250=



000
FTUS44 KJAN 292100 AAB
TAFGWO
TAF AMD
KGWO 292115Z 2921/3018 29008G15KT P6SM SCT040 BKN250
     FM300900 34005KT P6SM BKN250=



000
FTUS44 KJAN 292100 AAB
TAFGLH
TAF AMD
KGLH 292114Z 2921/3018 36012KT P6SM SCT030 BKN250
     FM300900 35005KT P6SM BKN250=



000
FTUS44 KJAN 291900 AAA
TAFHBG
TAF AMD
KHBG 291929Z 2919/3018 23012G24KT P6SM SCT100 BKN250
     FM300100 33004KT P6SM OVC050
     FM300600 34009KT P6SM OVC025
     FM300900 01007KT P6SM OVC100
     FM301500 02007KT P6SM SKC=



000
FTUS44 KJAN 291900 AAA
TAFMEI
TAF AMD
KMEI 291928Z 2919/3018 22013G25KT P6SM SCT100 BKN250
     FM300100 29013KT P6SM BKN040
     FM300600 36010KT P6SM OVC030
     FM301000 36007KT P6SM SCT250=



000
FTUS44 KJAN 291900 AAA
TAFGWO
TAF AMD
KGWO 291927Z 2919/3018 25013G22KT P6SM SCT100 BKN200
     FM292100 26014G20KT P6SM OVC020
     FM300300 36016KT P6SM OVC030
     FM300600 36008KT P6SM BKN050
     FM300900 34005KT P6SM BKN250=



000
FTUS44 KJAN 291900 AAA
TAFJAN
TAF AMD
KJAN 291927Z 2919/3018 21013G25KT P6SM BKN120
     FM292100 28013G23KT P6SM BKN035
     FM300100 34008KT P6SM OVC020
     FM300700 36007KT P6SM BKN050
     FM301200 03007KT P6SM BKN250=



000
FTUS44 KJAN 291900 AAA
TAFGLH
TAF AMD
KGLH 291926Z 2919/3018 25013G22KT P6SM SCT100 BKN200
     FM292100 26011G22KT P6SM OVC020
     FM300300 36016KT P6SM OVC030
     FM300600 36008KT P6SM BKN050
     FM300900 35005KT P6SM BKN250=



000
FTUS44 KJAN 291700
TAFHBG
TAF
KHBG 291720Z 2918/3018 24010G17KT P6SM BKN030
     FM291900 23012G17KT P6SM SCT100 BKN250
     FM300100 33004KT P6SM OVC050
     FM300600 34009KT P6SM OVC025
     FM300900 01007KT P6SM OVC100
     FM301500 02007KT P6SM SKC=



000
FTUS44 KJAN 291700
TAFGLH
TAF
KGLH 291720Z 2918/3018 25013G22KT P6SM SCT100 BKN200
     FM292100 26011G16KT P6SM OVC020
     FM300300 36016KT P6SM OVC030
     FM300600 36008KT P6SM BKN050
     FM300900 35005KT P6SM BKN250=



000
FTUS44 KJAN 291700
TAFGWO
TAF
KGWO 291720Z 2918/3018 25013G20KT P6SM SCT100 BKN200
     FM292100 26014KT P6SM OVC020
     FM300300 36016KT P6SM OVC030
     FM300600 36008KT P6SM BKN050
     FM300900 34005KT P6SM BKN250=



000
FTUS44 KJAN 291700
TAFMEI
TAF
KMEI 291720Z 2918/3018 22013G18KT P6SM SCT100 BKN250
     FM300100 29007KT P6SM BKN040
     FM300600 36010KT P6SM OVC030
     FM301000 36007KT P6SM SCT250=



000
FTUS44 KJAN 291700
TAFJAN
TAF
KJAN 291720Z 2918/3018 21010G17KT P6SM BKN120
     FM292100 28008G15KT P6SM BKN035
     FM300100 34008KT P6SM OVC020
     FM300700 36007KT P6SM BKN050
     FM301200 03007KT P6SM BKN250=



000
FTUS44 KJAN 291100
TAFHBG
TAF
KHBG 291120Z 2912/3012 16005KT P6SM SKC
     FM291700 22012G18KT P6SM SCT250
     FM300100 26005KT P6SM OVC100
     FM300700 33008KT P6SM OVC030
     FM301100 35005KT P6SM SCT250=



000
FTUS44 KJAN 291100
TAFGWO
TAF
KGWO 291120Z 2912/3012 20010KT P6SM OVC100
     FM291500 24013KT P6SM SCT100 BKN200
     FM292000 32011KT P6SM BKN030
     FM300100 36013G20KT P6SM BKN250
     FM300800 01006KT P6SM SKC=



000
FTUS44 KJAN 291100
TAFGLH
TAF
KGLH 291120Z 2912/3012 20015KT P6SM BKN100
     FM291500 25017KT P6SM SCT100 BKN200
     FM291900 33012KT P6SM BKN030
     FM300000 35014G21KT P6SM BKN250
     FM300600 36008KT P6SM SKC=



000
FTUS44 KJAN 291100
TAFMEI
TAF
KMEI 291120Z 2912/3012 19007KT P6SM SCT250
     FM291700 22013G20KT P6SM SCT100 BKN250
     FM300100 29007KT P6SM BKN040
     FM300600 36010KT P6SM OVC030
     FM301000 36007KT P6SM SCT250=



000
FTUS44 KJAN 291100
TAFJAN
TAF
KJAN 291120Z 2912/3012 19005KT P6SM SCT250
     FM291500 21010G17KT P6SM BKN100
     FM292100 28008KT P6SM BKN035
     FM300100 34008KT P6SM OVC030
     FM300800 36007KT P6SM SCT250=



000
FTUS44 KJAN 290500
TAFGWO
TAF
KGWO 290520Z 2906/3006 16008KT P6SM SCT250
     FM291000 18010KT P6SM SCT009 BKN100
     FM291500 22009G15KT P6SM BKN020
     FM292000 29008KT P6SM BKN025
     FM300000 36008G15KT P6SM BKN030 BKN250=



000
FTUS44 KJAN 290500
TAFJAN
TAF
KJAN 290520Z 2906/3006 16005KT P6SM SCT250
     FM291000 17007KT P6SM SCT009 BKN120
     FM291400 20011G17KT P6SM SCT030 BKN100
     FM292000 27008KT P6SM BKN035
     FM300000 34008KT P6SM SCT030 BKN250=



000
FTUS44 KJAN 290500
TAFMEI
TAF
KMEI 290520Z 2906/3006 18003KT P6SM SCT250
     FM291500 20012G20KT P6SM SCT030 BKN100
     FM300000 30007KT P6SM BKN025=



000
FTUS44 KJAN 290500
TAFGLH
TAF
KGLH 290520Z 2906/3006 16010KT P6SM SCT250
     FM290900 19011KT P6SM SCT007 BKN120
     FM291500 23011KT P6SM BKN025
     FM291900 30012KT P6SM BKN030
     FM300000 36013G21KT P6SM SCT030 BKN250=



000
FTUS44 KJAN 290500
TAFHBG
TAF
KHBG 290520Z 2906/3006 00000KT P6SM FEW250
     FM291000 00000KT 4SM BR SCT008 SCT250
     FM291400 19006KT P6SM SCT250
     FM291800 21011G17KT P6SM SCT030 BKN250
     FM300200 30006KT P6SM BKN035=



000
FTUS44 KJAN 282300
TAFJAN
TAF
KJAN 282334Z 2900/2924 16005KT P6SM SCT250
     FM291000 17007KT P6SM SCT009 BKN120
     FM291400 20011G17KT P6SM SCT030 BKN100
     FM292000 27008KT P6SM BKN035=



000
FTUS44 KJAN 282300
TAFHBG
TAF
KHBG 282334Z 2900/2924 00000KT P6SM FEW250
     FM291000 00000KT 4SM BR FEW250
     FM291100 00000KT 1 1/2SM BR FEW250
     FM291200 00000KT 1/2SM FG FEW250
     FM291300 00000KT 4SM BR SCT250
     FM291400 19006KT P6SM SCT250
     FM291800 21011G17KT P6SM SCT030 BKN250=



000
FTUS44 KJAN 282300
TAFGLH
TAF
KGLH 282334Z 2900/2924 16010KT P6SM SCT250
     FM290900 19011KT P6SM SCT007 BKN120
     FM291500 23011KT P6SM BKN025
     FM291900 30012KT P6SM BKN030=



000
FTUS44 KJAN 282300
TAFMEI
TAF
KMEI 282334Z 2900/2924 18003KT P6SM SCT250
     FM291500 20012G20KT P6SM SCT030 BKN100=



000
FTUS44 KJAN 282300
TAFGWO
TAF
KGWO 282334Z 2900/2924 16008KT P6SM SCT250
     FM291000 18010KT P6SM SCT009 BKN100
     FM291500 22009G15KT P6SM BKN020
     FM292000 29008KT P6SM BKN025=



000
FTUS44 KJAN 281700
TAFMEI
TAF
KMEI 281737Z 2818/2918 09006KT P6SM SKC
     FM290000 17003KT P6SM SKC
     FM291200 20013G19KT P6SM FEW010 SCT250=



000
FTUS44 KJAN 281700
TAFJAN
TAF
KJAN 281737Z 2818/2918 14007KT P6SM SKC
     FM291100 19012G18KT P6SM FEW010 BKN250=



000
FTUS44 KJAN 281700
TAFHBG
TAF
KHBG 281737Z 2818/2918 12006KT P6SM SKC
     FM291000 00000KT 3SM BR FEW010
     FM291400 20012G18KT P6SM FEW020 SCT250=



000
FTUS44 KJAN 281700
TAFGLH
TAF
KGLH 281737Z 2818/2918 15011KT P6SM SCT250
     FM290500 18013KT P6SM SKC
     FM291400 22013KT P6SM FEW010 BKN100=



000
FTUS44 KJAN 281700
TAFGWO
TAF
KGWO 281737Z 2818/2918 15008KT P6SM SKC
     FM291400 20010G17KT P6SM FEW010 BKN100=



000
FTUS44 KJAN 281100
TAFGWO
TAF
KGWO 281120Z 2812/2912 07003KT P6SM SKC
     FM281500 15006KT P6SM SCT250
     FM290600 18011KT P6SM SKC=



000
FTUS44 KJAN 281100
TAFHBG
TAF
KHBG 281120Z 2812/2912 VRB03KT P6SM SKC
     FM281500 10004KT P6SM SKC=



000
FTUS44 KJAN 281100
TAFMEI
TAF
KMEI 281120Z 2812/2912 05003KT P6SM SKC
     FM281500 10005KT P6SM SKC=



000
FTUS44 KJAN 281100
TAFGLH
TAF
KGLH 281120Z 2812/2912 09004KT P6SM SKC
     FM281500 14008KT P6SM SCT250
     FM290600 19012KT P6SM SKC=



000
FTUS44 KJAN 281100
TAFJAN
TAF
KJAN 281120Z 2812/2912 13006KT P6SM SCT250=



000
FTUS44 KJAN 280500
TAFHBG
TAF
KHBG 280525Z 2806/2906 VRB03KT P6SM SKC
     FM281500 10004KT P6SM SKC=



000
FTUS44 KJAN 280500
TAFGWO
TAF
KGWO 280525Z 2806/2906 05003KT P6SM SKC
     FM281500 15006KT P6SM SCT250=



000
FTUS44 KJAN 280500
TAFJAN
TAF
KJAN 280525Z 2806/2906 05003KT P6SM SKC
     FM281500 13005KT P6SM SCT250=



000
FTUS44 KJAN 280500
TAFMEI
TAF
KMEI 280525Z 2806/2906 05003KT P6SM SKC
     FM281500 10005KT P6SM SKC=



000
FTUS44 KJAN 280500
TAFGLH
TAF
KGLH 280525Z 2806/2906 09004KT P6SM SKC
     FM281500 14008KT P6SM SCT250=



    US Dept of Commerce
    National Oceanic and Atmospheric Administration
    National Weather Service
    1325 East West Highway
    Silver Spring, MD 20910
    Page Author: NWS Internet Services Team
Disclaimer
Information Quality
Credits
Glossary
Privacy Policy
Freedom of Information Act (FOIA)
About Us
Career Opportunities